Time;durP1;ratioP1;P1;durP2;ratioP2;P2;SDS_P1;SDS_P2;PMS_P1;PMS_P2;Temp;Humidity;BMP_temperature;BMP_pressure;BME280_temperature;BME280_humidity;BME280_pressure;Samples;Min_cycle;Max_cycle;Signal;HPM_P1;HPM_P2
2023/12/26 00:02:12;;;;;;;23.88;11.68;;;;;;;;;;10030583;28;20046;-74
2023/12/26 00:07:04;;;;;;;20.63;10.52;;;;;;;;;;10028088;28;20104;-74
2023/12/26 00:11:56;;;;;;;18.70;8.80;;;;;;;;;;10029209;28;20038;-74
2023/12/26 00:16:48;;;;;;;19.67;10.82;;;;;;;;;;10025876;28;20050;-74
2023/12/26 00:21:39;;;;;;;14.93;9.63;;;;;;;;;;10022226;28;20046;-74
2023/12/26 00:26:31;;;;;;;12.90;7.82;;;;;;;;;;10035738;28;20432;-74
2023/12/26 00:31:24;;;;;;;15.18;7.50;;;;;;;;;;10022679;28;20050;-74
2023/12/26 00:36:18;;;;;;;13.88;6.25;;;;;;;;;;10020657;28;20125;-74
2023/12/26 00:41:10;;;;;;;11.05;7.82;;;;;;;;;;10026176;28;20064;-74
2023/12/26 00:46:02;;;;;;;17.60;9.65;;;;;;;;;;10026969;28;20481;-74
2023/12/26 00:50:54;;;;;;;12.85;7.65;;;;;;;;;;10028552;28;20053;-74
2023/12/26 00:55:46;;;;;;;19.23;8.45;;;;;;;;;;10026923;28;20054;-74
2023/12/26 01:00:38;;;;;;;14.23;8.45;;;;;;;;;;10026942;28;20065;-74
2023/12/26 01:05:30;;;;;;;19.67;7.03;;;;;;;;;;10028412;28;20353;-74
2023/12/26 01:10:21;;;;;;;16.67;7.63;;;;;;;;;;10026076;28;20108;-74
2023/12/26 01:15:14;;;;;;;22.65;7.60;;;;;;;;;;9998323;28;20476;-74
2023/12/26 01:20:06;;;;;;;10.75;6.72;;;;;;;;;;10006757;28;20134;-74
2023/12/26 01:24:58;;;;;;;16.70;7.35;;;;;;;;;;9990359;28;20049;-74
2023/12/26 01:29:50;;;;;;;12.15;6.85;;;;;;;;;;9988718;28;20042;-74
2023/12/26 01:34:42;;;;;;;13.98;7.10;;;;;;;;;;9991452;28;20038;-74
2023/12/26 01:39:35;;;;;;;8.43;5.93;;;;;;;;;;10006438;28;20068;-74
2023/12/26 01:44:27;;;;;;;8.45;6.10;;;;;;;;;;9998181;28;20054;-74
2023/12/26 01:49:19;;;;;;;9.27;4.82;;;;;;;;;;10011384;28;20117;-74
2023/12/26 01:54:11;;;;;;;19.67;8.27;;;;;;;;;;10027844;28;20043;-74
2023/12/26 01:59:03;;;;;;;14.02;8.50;;;;;;;;;;9989068;28;20039;-74
2023/12/26 02:03:58;;;;;;;15.45;7.38;;;;;;;;;;10005837;28;20500;-74
2023/12/26 02:08:50;;;;;;;15.68;7.40;;;;;;;;;;10003424;28;20047;-74
2023/12/26 02:13:42;;;;;;;12.27;6.53;;;;;;;;;;10003220;28;20051;-74
2023/12/26 02:18:34;;;;;;;9.07;5.63;;;;;;;;;;9989227;28;20046;-74
2023/12/26 02:23:28;;;;;;;13.13;6.35;;;;;;;;;;9987571;28;20042;-74
2023/12/26 02:28:20;;;;;;;13.68;7.63;;;;;;;;;;9989006;28;20129;-74
2023/12/26 02:33:13;;;;;;;12.20;7.75;;;;;;;;;;10004458;28;20041;-74
2023/12/26 02:38:05;;;;;;;7.75;5.85;;;;;;;;;;9988978;28;20065;-74
2023/12/26 02:42:57;;;;;;;12.25;6.45;;;;;;;;;;10002953;28;20532;-74
2023/12/26 02:47:49;;;;;;;8.98;6.20;;;;;;;;;;10002125;28;20046;-74
2023/12/26 02:52:43;;;;;;;9.68;5.43;;;;;;;;;;10003937;28;20074;-74
2023/12/26 02:57:35;;;;;;;12.50;5.47;;;;;;;;;;10003149;28;20854;-74
2023/12/26 03:02:27;;;;;;;9.00;4.65;;;;;;;;;;9991257;28;20053;-74
2023/12/26 03:07:20;;;;;;;10.40;4.47;;;;;;;;;;9994028;28;20046;-74
2023/12/26 03:12:12;;;;;;;9.32;5.35;;;;;;;;;;9987364;28;20046;-74
2023/12/26 03:17:04;;;;;;;8.95;5.45;;;;;;;;;;9988356;28;20035;-74
2023/12/26 03:21:56;;;;;;;12.88;6.22;;;;;;;;;;9998757;28;20042;-74
2023/12/26 03:26:47;;;;;;;8.35;5.10;;;;;;;;;;10009128;28;20389;-74
2023/12/26 03:31:44;;;;;;;7.43;4.57;;;;;;;;;;9996419;28;20517;-74
2023/12/26 03:36:44;;;;;;;4.97;4.25;;;;;;;;;;9995992;28;20049;-74
2023/12/26 03:41:36;;;;;;;8.40;6.07;;;;;;;;;;10008399;28;20054;-74
2023/12/26 03:46:28;;;;;;;15.48;5.72;;;;;;;;;;10010590;28;20390;-74
2023/12/26 03:51:20;;;;;;;9.90;4.60;;;;;;;;;;10008896;28;20053;-74
2023/12/26 03:56:12;;;;;;;13.30;5.72;;;;;;;;;;9994111;28;20409;-74
2023/12/26 04:01:04;;;;;;;12.63;6.20;;;;;;;;;;10008135;28;20054;-74
2023/12/26 04:05:56;;;;;;;11.00;7.55;;;;;;;;;;10008046;28;20100;-74
2023/12/26 04:10:48;;;;;;;9.52;5.80;;;;;;;;;;10007846;28;20077;-74
2023/12/26 04:15:40;;;;;;;9.25;6.53;;;;;;;;;;10008248;28;20130;-74
2023/12/26 04:20:32;;;;;;;10.93;5.95;;;;;;;;;;10007024;28;20473;-74
2023/12/26 04:25:24;;;;;;;8.70;5.15;;;;;;;;;;9991648;28;20046;-74
2023/12/26 04:30:17;;;;;;;8.63;5.55;;;;;;;;;;10008568;28;20259;-74
2023/12/26 04:35:10;;;;;;;8.45;5.28;;;;;;;;;;9991506;28;20053;-74
2023/12/26 04:40:02;;;;;;;11.25;6.82;;;;;;;;;;10006338;28;20136;-74
2023/12/26 04:44:54;;;;;;;11.65;6.05;;;;;;;;;;10007610;28;20061;-74
2023/12/26 04:49:46;;;;;;;11.65;6.47;;;;;;;;;;9992413;28;20041;-74
2023/12/26 04:54:38;;;;;;;11.40;6.30;;;;;;;;;;10007048;28;20093;-74
2023/12/26 04:59:30;;;;;;;8.77;4.32;;;;;;;;;;9991149;28;20085;-74
2023/12/26 05:04:23;;;;;;;9.45;4.63;;;;;;;;;;10006930;28;20088;-74
2023/12/26 05:09:17;;;;;;;5.35;3.40;;;;;;;;;;9990545;28;20113;-74
2023/12/26 05:14:09;;;;;;;11.95;3.97;;;;;;;;;;9990385;28;20093;-74
2023/12/26 05:19:01;;;;;;;5.80;3.63;;;;;;;;;;9989760;28;20101;-74
2023/12/26 05:23:53;;;;;;;8.90;4.80;;;;;;;;;;9990002;28;20043;-74
2023/12/26 05:28:45;;;;;;;33.83;25.23;;;;;;;;;;10005399;28;20074;-74
2023/12/26 05:33:37;;;;;;;5.28;3.67;;;;;;;;;;10005275;28;20034;-74
2023/12/26 05:38:31;;;;;;;8.90;4.32;;;;;;;;;;10005425;28;20043;-74
2023/12/26 05:43:23;;;;;;;8.07;3.50;;;;;;;;;;10005136;28;20043;-74
2023/12/26 05:48:15;;;;;;;14.52;6.10;;;;;;;;;;10003843;28;20520;-74
2023/12/26 05:53:07;;;;;;;15.15;10.25;;;;;;;;;;10004292;28;20039;-74
2023/12/26 05:57:59;;;;;;;16.40;9.23;;;;;;;;;;10017073;28;20107;-74
2023/12/26 06:02:52;;;;;;;21.95;11.52;;;;;;;;;;10024072;28;20042;-74
2023/12/26 06:07:44;;;;;;;15.90;9.65;;;;;;;;;;10004047;28;20131;-74
2023/12/26 06:12:36;;;;;;;17.55;9.93;;;;;;;;;;10023978;28;20065;-74
2023/12/26 06:17:29;;;;;;;11.30;7.22;;;;;;;;;;10038871;28;20116;-74
2023/12/26 06:22:22;;;;;;;14.00;8.30;;;;;;;;;;10025127;28;20050;-73
2023/12/26 06:27:14;;;;;;;14.10;8.95;;;;;;;;;;10024962;28;20128;-74
2023/12/26 06:32:07;;;;;;;16.08;10.32;;;;;;;;;;10024099;28;20092;-74
2023/12/26 06:37:00;;;;;;;41.83;28.33;;;;;;;;;;10023087;28;20052;-74
2023/12/26 06:41:52;;;;;;;47.03;30.98;;;;;;;;;;10023839;28;20057;-74
2023/12/26 06:46:44;;;;;;;46.50;26.60;;;;;;;;;;10024405;28;20049;-74
2023/12/26 06:51:40;;;;;;;23.58;18.67;;;;;;;;;;10024932;28;20034;-74
2023/12/26 06:56:34;;;;;;;14.30;6.82;;;;;;;;;;10025713;28;20080;-74
2023/12/26 07:01:26;;;;;;;17.35;12.00;;;;;;;;;;10031187;28;20096;-75
2023/12/26 07:06:18;;;;;;;26.25;17.40;;;;;;;;;;10031022;28;20092;-74
2023/12/26 07:11:10;;;;;;;19.70;10.15;;;;;;;;;;10031876;28;20112;-73
2023/12/26 07:16:02;;;;;;;54.53;31.70;;;;;;;;;;10033109;28;20056;-74
2023/12/26 07:20:53;;;;;;;42.20;23.58;;;;;;;;;;10032773;28;20120;-74
2023/12/26 07:25:45;;;;;;;8.52;6.18;;;;;;;;;;10031119;28;20046;-74
2023/12/26 07:30:39;;;;;;;51.10;27.55;;;;;;;;;;10031821;28;20477;-73
2023/12/26 07:35:35;;;;;;;8.23;5.75;;;;;;;;;;10030813;28;20084;-74
2023/12/26 07:40:26;;;;;;;35.38;17.73;;;;;;;;;;10026099;28;20473;-74
2023/12/26 07:45:23;;;;;;;18.80;7.35;;;;;;;;;;10030294;28;20053;-74
2023/12/26 07:50:16;;;;;;;28.63;13.50;;;;;;;;;;10031112;28;20077;-74
2023/12/26 07:55:08;;;;;;;8.65;5.60;;;;;;;;;;10029969;28;20060;-74
2023/12/26 08:00:00;;;;;;;20.05;7.32;;;;;;;;;;10030444;28;20045;-74
2023/12/26 08:05:02;;;;;;;9.18;7.05;;;;;;;;;;10029943;28;20133;-74
2023/12/26 08:09:54;;;;;;;11.52;5.72;;;;;;;;;;10027044;28;20050;-74
2023/12/26 08:14:46;;;;;;;10.68;6.65;;;;;;;;;;10029607;28;20477;-73
2023/12/26 08:19:38;;;;;;;13.25;9.35;;;;;;;;;;10025269;28;20058;-74
2023/12/26 08:24:30;;;;;;;16.27;13.13;;;;;;;;;;10024428;28;20050;-73
2023/12/26 08:29:22;;;;;;;9.45;6.53;;;;;;;;;;10028987;28;20385;-74
2023/12/26 08:34:15;;;;;;;11.75;8.20;;;;;;;;;;10028067;28;20060;-75
2023/12/26 08:39:07;;;;;;;10.70;6.47;;;;;;;;;;10035868;28;20042;-74
2023/12/26 08:43:59;;;;;;;9.75;7.55;;;;;;;;;;10027912;28;20408;-74
2023/12/26 08:48:51;;;;;;;12.95;6.13;;;;;;;;;;10028283;28;20065;-74
2023/12/26 08:53:43;;;;;;;11.55;6.00;;;;;;;;;;10028012;28;20046;-74
2023/12/26 08:58:37;;;;;;;11.65;6.47;;;;;;;;;;10010632;28;20065;-73
2023/12/26 09:03:29;;;;;;;12.93;5.90;;;;;;;;;;10027523;28;20516;-73
2023/12/26 09:08:21;;;;;;;9.02;6.80;;;;;;;;;;10033212;28;20469;-73
2023/12/26 09:13:13;;;;;;;13.35;7.72;;;;;;;;;;10025992;28;20042;-74
2023/12/26 09:18:05;;;;;;;14.82;10.10;;;;;;;;;;10025943;28;20428;-73
2023/12/26 09:22:57;;;;;;;13.38;8.45;;;;;;;;;;10026142;28;20046;-74
2023/12/26 09:27:50;;;;;;;17.15;10.13;;;;;;;;;;10026474;28;20156;-73
2023/12/26 09:32:42;;;;;;;22.33;11.20;;;;;;;;;;10027494;28;20050;-74
2023/12/26 09:37:38;;;;;;;22.77;11.45;;;;;;;;;;10034479;28;20125;-74
2023/12/26 09:42:30;;;;;;;21.95;12.25;;;;;;;;;;10026134;28;20053;-73
2023/12/26 09:47:23;;;;;;;19.05;10.63;;;;;;;;;;10024416;28;20100;-73
2023/12/26 09:52:15;;;;;;;22.40;9.20;;;;;;;;;;10025158;28;20048;-73
2023/12/26 09:57:08;;;;;;;20.30;8.77;;;;;;;;;;10023891;28;20057;-73
2023/12/26 10:02:00;;;;;;;18.20;9.55;;;;;;;;;;10024471;28;20041;-74
2023/12/26 10:06:53;;;;;;;12.45;7.05;;;;;;;;;;10034723;28;20485;-73
2023/12/26 10:11:45;;;;;;;19.15;7.95;;;;;;;;;;10026514;28;20485;-73
2023/12/26 10:16:37;;;;;;;12.82;6.78;;;;;;;;;;10025048;28;20129;-73
2023/12/26 10:21:29;;;;;;;13.13;6.75;;;;;;;;;;10025109;28;20042;-74
2023/12/26 10:26:22;;;;;;;19.00;7.68;;;;;;;;;;10024937;28;20073;-73
2023/12/26 10:31:15;;;;;;;11.55;6.18;;;;;;;;;;10023976;28;20056;-74
2023/12/26 10:36:08;;;;;;;13.07;7.57;;;;;;;;;;10014466;28;20042;-74
2023/12/26 10:41:20;;;;;;;12.48;6.50;;;;;;;;;;10023931;28;20042;-73
2023/12/26 10:46:12;;;;;;;18.40;8.57;;;;;;;;;;10000994;28;20215;-73
2023/12/26 10:51:04;;;;;;;13.88;7.78;;;;;;;;;;9995327;28;20039;-73
2023/12/26 10:55:57;;;;;;;13.80;8.82;;;;;;;;;;10023899;28;20066;-73
2023/12/26 11:00:50;;;;;;;10.52;7.57;;;;;;;;;;10018759;28;20511;-74
2023/12/26 13:51:25;;;;;;;13.25;9.70;;;;;;;;;;10331880;27;20553;-74
2023/12/26 13:56:19;;;;;;;9.77;7.90;;;;;;;;;;10343271;27;20042;-75
2023/12/26 14:01:11;;;;;;;20.63;8.45;;;;;;;;;;10339929;27;20414;-74
2023/12/26 14:06:03;;;;;;;8.95;6.35;;;;;;;;;;10324259;27;20046;-76
2023/12/26 14:10:55;;;;;;;18.13;7.25;;;;;;;;;;10320944;27;20145;-75
2023/12/26 14:15:46;;;;;;;21.38;6.15;;;;;;;;;;10171767;27;20045;-75
2023/12/26 14:20:38;;;;;;;18.20;8.07;;;;;;;;;;10177467;28;20044;-77
2023/12/26 14:25:30;;;;;;;13.35;8.38;;;;;;;;;;10178225;28;20049;-78
2023/12/26 14:31:00;;;;;;;15.55;7.40;;;;;;;;;;10165779;28;20475;-74
2023/12/26 14:36:30;;;;;;;18.83;12.23;;;;;;;;;;10158019;28;20044;-74
2023/12/26 14:41:21;;;;;;;29.00;8.82;;;;;;;;;;10144633;28;20045;-74
2023/12/26 14:46:14;;;;;;;12.27;8.13;;;;;;;;;;10140296;28;20098;-74
2023/12/26 14:51:44;;;;;;;36.83;25.17;;;;;;;;;;10149176;28;20103;-74
2023/12/26 14:57:14;;;;;;;16.87;10.30;;;;;;;;;;10149655;28;20047;-75
2023/12/26 15:02:06;;;;;;;;;;;;;;;;;;10137041;28;20040;-74
2023/12/26 15:06:58;;;;;;;23.55;13.25;;;;;;;;;;10148124;28;19927;-73
2023/12/26 15:11:50;;;;;;;12.02;10.02;;;;;;;;;;10148426;28;20051;-73
2023/12/26 15:16:42;;;;;;;47.28;31.30;;;;;;;;;;10148286;28;20472;-73
2023/12/26 15:21:42;;;;;;;23.85;14.60;;;;;;;;;;10148207;28;20044;-74
2023/12/26 15:26:34;;;;;;;25.30;16.42;;;;;;;;;;10134940;28;20044;-73
2023/12/26 15:31:28;;;;;;;212.45;163.30;;;;;;;;;;10134549;28;20102;-73
2023/12/26 15:36:24;;;;;;;32.83;23.70;;;;;;;;;;10147260;28;20068;-74
2023/12/26 15:41:20;;;;;;;14.93;8.93;;;;;;;;;;10146912;28;20044;-73
2023/12/26 15:46:17;;;;;;;22.05;16.33;;;;;;;;;;10146582;28;20066;-74
2023/12/26 15:51:09;;;;;;;72.20;55.55;;;;;;;;;;10143707;28;20056;-71
2023/12/26 15:56:01;;;;;;;11.65;7.80;;;;;;;;;;10107704;28;20436;-71
2023/12/26 16:00:53;;;;;;;14.25;11.23;;;;;;;;;;10135867;28;20055;-72
2023/12/26 16:05:46;;;;;;;14.88;10.18;;;;;;;;;;10146018;28;20401;-74
2023/12/26 16:10:40;;;;;;;21.52;16.20;;;;;;;;;;10140546;28;20044;-72
2023/12/26 16:15:32;;;;;;;15.15;11.75;;;;;;;;;;10145488;28;20040;-71
2023/12/26 16:20:24;;;;;;;21.20;13.25;;;;;;;;;;10137596;28;20047;-71
2023/12/26 16:25:16;;;;;;;25.63;14.20;;;;;;;;;;10142133;28;20114;-71
2023/12/26 16:30:08;;;;;;;16.42;11.48;;;;;;;;;;10123695;28;20463;-71
2023/12/26 16:35:04;;;;;;;22.58;14.27;;;;;;;;;;10132619;28;20119;-71
2023/12/26 16:39:57;;;;;;;48.72;35.08;;;;;;;;;;10133821;28;20071;-71
2023/12/26 16:44:49;;;;;;;21.55;13.10;;;;;;;;;;10144823;28;20127;-71
2023/12/26 16:49:45;;;;;;;19.08;11.05;;;;;;;;;;10145647;28;20052;-71
2023/12/26 16:54:39;;;;;;;16.00;8.35;;;;;;;;;;10145511;28;20044;-71
2023/12/26 16:59:31;;;;;;;9.32;7.25;;;;;;;;;;10145393;28;20068;-71
2023/12/26 17:04:23;;;;;;;11.38;7.75;;;;;;;;;;10145017;28;20090;-71
2023/12/26 17:09:15;;;;;;;15.88;8.15;;;;;;;;;;10145241;28;20062;-71
2023/12/26 17:14:08;;;;;;;17.00;9.65;;;;;;;;;;10144177;28;20045;-71
2023/12/26 17:18:59;;;;;;;61.97;46.30;;;;;;;;;;10145550;28;20467;-71
2023/12/26 17:23:51;;;;;;;32.00;25.42;;;;;;;;;;10144115;28;20116;-71
2023/12/26 17:28:49;;;;;;;40.85;29.10;;;;;;;;;;10144524;28;20040;-71
2023/12/26 17:33:40;;;;;;;25.17;18.52;;;;;;;;;;10144785;28;20048;-71
2023/12/26 17:38:32;;;;;;;22.83;18.60;;;;;;;;;;10140505;28;20361;-71
2023/12/26 17:43:24;;;;;;;26.67;15.98;;;;;;;;;;10129869;28;20419;-71
2023/12/26 17:48:16;;;;;;;34.40;21.05;;;;;;;;;;10137754;28;20041;-71
2023/12/26 17:53:08;;;;;;;56.63;31.95;;;;;;;;;;10110598;28;20049;-71
2023/12/26 17:58:02;;;;;;;52.58;26.88;;;;;;;;;;10122511;28;20045;-71
2023/12/26 18:02:54;;;;;;;104.85;68.75;;;;;;;;;;10138903;28;20132;-71
2023/12/26 18:07:46;;;;;;;87.18;64.40;;;;;;;;;;10124898;28;20103;-71
2023/12/26 18:12:38;;;;;;;19.50;12.82;;;;;;;;;;10131084;28;20044;-71
2023/12/26 18:17:30;;;;;;;61.83;37.30;;;;;;;;;;10141700;28;20120;-71
2023/12/26 18:22:22;;;;;;;35.47;23.45;;;;;;;;;;10144233;28;20051;-71
2023/12/26 18:27:15;;;;;;;25.90;14.50;;;;;;;;;;10143352;28;20041;-71
2023/12/26 18:32:07;;;;;;;18.85;13.32;;;;;;;;;;10141879;28;20136;-70
2023/12/26 18:37:00;;;;;;;42.15;21.05;;;;;;;;;;10136755;28;20132;-71
2023/12/26 18:41:56;;;;;;;75.57;46.95;;;;;;;;;;10141580;28;20422;-70
2023/12/26 18:46:48;;;;;;;18.52;11.65;;;;;;;;;;10142724;28;20135;-71
2023/12/26 18:51:40;;;;;;;25.80;14.00;;;;;;;;;;10142749;28;20049;-70
2023/12/26 18:56:32;;;;;;;24.40;15.43;;;;;;;;;;10142096;28;20075;-71
2023/12/26 19:01:24;;;;;;;37.00;22.30;;;;;;;;;;10142506;28;20040;-71
2023/12/26 19:06:17;;;;;;;27.77;15.77;;;;;;;;;;10136872;28;20051;-71
2023/12/26 19:11:15;;;;;;;33.13;17.65;;;;;;;;;;10137963;28;20045;-71
2023/12/26 19:16:07;;;;;;;34.50;21.48;;;;;;;;;;10148408;28;20048;-70
2023/12/26 19:20:59;;;;;;;25.02;10.57;;;;;;;;;;10148581;28;20056;-70
2023/12/26 19:25:51;;;;;;;19.02;10.05;;;;;;;;;;10147261;28;20071;-71
2023/12/26 19:30:43;;;;;;;28.80;14.88;;;;;;;;;;10144590;28;20080;-71
2023/12/26 19:35:35;;;;;;;16.95;9.85;;;;;;;;;;10146251;28;20044;-71
2023/12/26 19:40:26;;;;;;;14.73;7.93;;;;;;;;;;10140394;28;20408;-71
2023/12/26 19:45:18;;;;;;;17.58;9.52;;;;;;;;;;10140522;28;20050;-71
2023/12/26 19:50:11;;;;;;;16.02;8.98;;;;;;;;;;10140250;28;20055;-71
2023/12/26 19:55:04;;;;;;;18.60;12.15;;;;;;;;;;10141309;28;20136;-71
2023/12/26 19:59:56;;;;;;;23.70;11.07;;;;;;;;;;10146745;28;20048;-72
2023/12/26 20:04:48;;;;;;;11.52;7.30;;;;;;;;;;10116384;28;20566;-72
2023/12/26 20:09:42;;;;;;;19.15;9.23;;;;;;;;;;10109125;28;20055;-72
2023/12/26 20:14:37;;;;;;;22.40;10.38;;;;;;;;;;10127504;28;20041;-72
2023/12/26 20:19:29;;;;;;;12.52;8.65;;;;;;;;;;10146496;28;20476;-72
2023/12/26 20:24:21;;;;;;;14.27;10.27;;;;;;;;;;10146575;28;20072;-72
2023/12/26 20:29:23;;;;;;;18.30;11.90;;;;;;;;;;10146215;28;20395;-72
2023/12/26 20:34:15;;;;;;;17.90;12.60;;;;;;;;;;10146641;28;20126;-72
2023/12/26 20:39:07;;;;;;;19.23;12.93;;;;;;;;;;10145302;28;20048;-72
2023/12/26 20:44:00;;;;;;;23.48;11.00;;;;;;;;;;10134240;28;20345;-72
2023/12/26 20:48:52;;;;;;;20.02;10.25;;;;;;;;;;10133476;28;20040;-71
2023/12/26 20:53:45;;;;;;;16.77;9.48;;;;;;;;;;10133640;28;20112;-73
2023/12/26 20:58:38;;;;;;;17.65;10.20;;;;;;;;;;10134447;28;20111;-72
2023/12/26 21:03:30;;;;;;;15.95;10.10;;;;;;;;;;10138701;28;20098;-71
2023/12/26 21:08:22;;;;;;;23.05;10.43;;;;;;;;;;10138777;28;20043;-72
2023/12/26 21:13:13;;;;;;;15.88;8.75;;;;;;;;;;10129918;28;20060;-72
2023/12/26 21:18:06;;;;;;;15.32;7.82;;;;;;;;;;10131472;28;20038;-71
2023/12/26 21:22:59;;;;;;;17.20;10.07;;;;;;;;;;10138325;28;20474;-72
2023/12/26 21:27:50;;;;;;;13.45;8.50;;;;;;;;;;10133234;28;20428;-72
2023/12/26 21:32:42;;;;;;;15.00;9.02;;;;;;;;;;10131219;28;20044;-72
2023/12/26 21:37:34;;;;;;;13.48;8.15;;;;;;;;;;10136863;28;20040;-72
2023/12/26 21:42:26;;;;;;;14.30;9.15;;;;;;;;;;10137788;28;20410;-72
2023/12/26 21:47:18;;;;;;;17.45;8.68;;;;;;;;;;10139023;28;20048;-72
2023/12/26 21:52:10;;;;;;;12.73;7.88;;;;;;;;;;10141588;28;20442;-72
2023/12/26 21:57:02;;;;;;;17.10;8.73;;;;;;;;;;10146052;28;20120;-72
2023/12/26 22:01:55;;;;;;;13.80;9.85;;;;;;;;;;10135419;28;20490;-72
2023/12/26 22:06:48;;;;;;;11.88;7.57;;;;;;;;;;10142480;28;20049;-72
2023/12/26 22:11:41;;;;;;;19.33;10.68;;;;;;;;;;10130202;28;20099;-72
2023/12/26 22:16:33;;;;;;;13.45;8.38;;;;;;;;;;10155273;28;20051;-72
2023/12/26 22:21:25;;;;;;;17.92;9.50;;;;;;;;;;10145055;28;20044;-71
2023/12/26 22:26:17;;;;;;;13.65;8.38;;;;;;;;;;10138818;28;20540;-72
2023/12/26 22:31:19;;;;;;;10.07;7.57;;;;;;;;;;10141991;28;20052;-72
2023/12/26 22:36:12;;;;;;;12.20;8.45;;;;;;;;;;10141751;28;20412;-72
2023/12/26 22:41:04;;;;;;;14.88;8.60;;;;;;;;;;10142897;28;20083;-71
2023/12/26 22:45:56;;;;;;;9.65;6.88;;;;;;;;;;10144492;28;20079;-72
2023/12/26 22:50:48;;;;;;;10.82;7.40;;;;;;;;;;10150315;28;20049;-72
2023/12/26 22:55:40;;;;;;;11.30;7.10;;;;;;;;;;10146782;28;20048;-72
2023/12/26 23:00:32;;;;;;;12.70;8.70;;;;;;;;;;10141473;28;20534;-72
2023/12/26 23:05:24;;;;;;;14.38;7.10;;;;;;;;;;10135387;28;20037;-72
2023/12/26 23:10:16;;;;;;;11.43;6.63;;;;;;;;;;10141444;28;20478;-72
2023/12/26 23:15:08;;;;;;;9.32;6.60;;;;;;;;;;10143586;28;20047;-72
2023/12/26 23:20:01;;;;;;;14.23;6.93;;;;;;;;;;10140527;28;20049;-72
2023/12/26 23:24:52;;;;;;;11.85;6.47;;;;;;;;;;10142637;28;20055;-71
2023/12/26 23:29:44;;;;;;;13.27;7.57;;;;;;;;;;10143673;28;20455;-71
2023/12/26 23:34:36;;;;;;;10.35;6.90;;;;;;;;;;10127059;28;20041;-72
2023/12/26 23:39:44;;;;;;;12.20;6.50;;;;;;;;;;10146319;28;20045;-72
2023/12/26 23:44:36;;;;;;;9.52;6.95;;;;;;;;;;10135147;28;20052;-71
2023/12/26 23:49:28;;;;;;;10.15;6.20;;;;;;;;;;10147051;28;20139;-71
2023/12/26 23:54:20;;;;;;;9.77;6.65;;;;;;;;;;10127439;28;20037;-71
2023/12/26 23:59:12;;;;;;;7.93;6.28;;;;;;;;;;10147801;28;20087;-71
